sensor_id;sensor_type;location;lat;lon;timestamp;temperature;humidity
71173;DHT22;58875;51.996;4.504;2024-02-26T00:01:51;6.84;78.36
71173;DHT22;58875;51.996;4.504;2024-02-26T00:04:17;6.82;78.42
71173;DHT22;58875;51.996;4.504;2024-02-26T00:06:43;6.80;78.45
71173;DHT22;58875;51.996;4.504;2024-02-26T00:09:10;6.89;78.19
71173;DHT22;58875;51.996;4.504;2024-02-26T00:11:36;6.86;78.09
71173;DHT22;58875;51.996;4.504;2024-02-26T00:14:03;6.84;78.18
71173;DHT22;58875;51.996;4.504;2024-02-26T00:16:29;6.87;78.01
71173;DHT22;58875;51.996;4.504;2024-02-26T00:18:54;6.84;78.06
71173;DHT22;58875;51.996;4.504;2024-02-26T00:21:20;6.87;77.86
71173;DHT22;58875;51.996;4.504;2024-02-26T00:23:46;6.87;77.68
71173;DHT22;58875;51.996;4.504;2024-02-26T00:26:11;6.87;77.78
71173;DHT22;58875;51.996;4.504;2024-02-26T00:28:37;6.84;77.83
71173;DHT22;58875;51.996;4.504;2024-02-26T00:31:03;6.89;77.85
71173;DHT22;58875;51.996;4.504;2024-02-26T00:33:29;6.83;77.86
71173;DHT22;58875;51.996;4.504;2024-02-26T00:35:54;6.87;77.87
71173;DHT22;58875;51.996;4.504;2024-02-26T00:38:20;6.89;77.58
71173;DHT22;58875;51.996;4.504;2024-02-26T00:40:46;6.90;77.42
71173;DHT22;58875;51.996;4.504;2024-02-26T00:43:12;6.93;77.35
71173;DHT22;58875;51.996;4.504;2024-02-26T00:45:37;6.91;77.52
71173;DHT22;58875;51.996;4.504;2024-02-26T00:48:03;6.90;77.18
71173;DHT22;58875;51.996;4.504;2024-02-26T00:50:33;6.90;77.22
71173;DHT22;58875;51.996;4.504;2024-02-26T00:52:59;6.91;77.23
71173;DHT22;58875;51.996;4.504;2024-02-26T00:55:25;6.99;77.03
71173;DHT22;58875;51.996;4.504;2024-02-26T00:57:51;6.93;76.91
71173;DHT22;58875;51.996;4.504;2024-02-26T01:00:16;6.93;76.97
71173;DHT22;58875;51.996;4.504;2024-02-26T01:02:42;6.90;77.00
71173;DHT22;58875;51.996;4.504;2024-02-26T01:05:09;6.96;77.05
71173;DHT22;58875;51.996;4.504;2024-02-26T01:07:37;6.96;76.93
71173;DHT22;58875;51.996;4.504;2024-02-26T01:10:04;6.94;76.95
71173;DHT22;58875;51.996;4.504;2024-02-26T01:12:31;6.89;77.26
71173;DHT22;58875;51.996;4.504;2024-02-26T01:14:56;6.91;77.34
71173;DHT22;58875;51.996;4.504;2024-02-26T01:17:22;6.96;77.36
71173;DHT22;58875;51.996;4.504;2024-02-26T01:19:47;6.94;77.29
71173;DHT22;58875;51.996;4.504;2024-02-26T01:22:13;6.93;77.33
71173;DHT22;58875;51.996;4.504;2024-02-26T01:24:38;6.93;77.21
71173;DHT22;58875;51.996;4.504;2024-02-26T01:27:04;6.93;77.17
71173;DHT22;58875;51.996;4.504;2024-02-26T01:29:30;6.93;77.35
71173;DHT22;58875;51.996;4.504;2024-02-26T01:31:56;6.89;77.28
71173;DHT22;58875;51.996;4.504;2024-02-26T01:34:21;6.93;77.34
71173;DHT22;58875;51.996;4.504;2024-02-26T01:36:47;6.84;77.73
71173;DHT22;58875;51.996;4.504;2024-02-26T01:39:13;6.94;77.64
71173;DHT22;58875;51.996;4.504;2024-02-26T01:41:41;6.97;77.23
71173;DHT22;58875;51.996;4.504;2024-02-26T01:44:07;6.93;77.51
71173;DHT22;58875;51.996;4.504;2024-02-26T01:46:34;6.93;77.42
71173;DHT22;58875;51.996;4.504;2024-02-26T01:49:02;6.93;77.31
71173;DHT22;58875;51.996;4.504;2024-02-26T01:51:30;6.91;77.32
71173;DHT22;58875;51.996;4.504;2024-02-26T01:53:59;6.93;77.38
71173;DHT22;58875;51.996;4.504;2024-02-26T01:56:26;6.96;77.20
71173;DHT22;58875;51.996;4.504;2024-02-26T01:58:57;6.97;77.10
71173;DHT22;58875;51.996;4.504;2024-02-26T02:01:25;6.91;77.00
71173;DHT22;58875;51.996;4.504;2024-02-26T02:03:52;6.96;76.90
71173;DHT22;58875;51.996;4.504;2024-02-26T02:06:18;6.97;76.97
71173;DHT22;58875;51.996;4.504;2024-02-26T02:08:44;7.01;76.80
71173;DHT22;58875;51.996;4.504;2024-02-26T02:11:10;6.97;76.67
71173;DHT22;58875;51.996;4.504;2024-02-26T02:13:37;7.01;76.44
71173;DHT22;58875;51.996;4.504;2024-02-26T02:16:03;7.00;76.50
71173;DHT22;58875;51.996;4.504;2024-02-26T02:18:30;6.99;76.49
71173;DHT22;58875;51.996;4.504;2024-02-26T02:20:55;7.01;76.47
71173;DHT22;58875;51.996;4.504;2024-02-26T02:23:24;6.99;76.37
71173;DHT22;58875;51.996;4.504;2024-02-26T02:25:50;7.00;76.29
71173;DHT22;58875;51.996;4.504;2024-02-26T02:28:16;7.04;76.21
71173;DHT22;58875;51.996;4.504;2024-02-26T02:30:41;7.01;76.23
71173;DHT22;58875;51.996;4.504;2024-02-26T02:33:07;7.00;76.36
71173;DHT22;58875;51.996;4.504;2024-02-26T02:35:32;6.97;76.38
71173;DHT22;58875;51.996;4.504;2024-02-26T02:37:58;7.03;76.22
71173;DHT22;58875;51.996;4.504;2024-02-26T02:40:24;6.97;76.48
71173;DHT22;58875;51.996;4.504;2024-02-26T02:42:49;6.97;76.28
71173;DHT22;58875;51.996;4.504;2024-02-26T02:45:15;6.97;75.96
71173;DHT22;58875;51.996;4.504;2024-02-26T02:47:40;6.96;76.07
71173;DHT22;58875;51.996;4.504;2024-02-26T02:50:06;7.03;76.02
71173;DHT22;58875;51.996;4.504;2024-02-26T02:52:32;7.04;75.96
71173;DHT22;58875;51.996;4.504;2024-02-26T02:54:58;7.04;75.89
71173;DHT22;58875;51.996;4.504;2024-02-26T02:57:23;6.96;75.84
71173;DHT22;58875;51.996;4.504;2024-02-26T02:59:49;6.94;75.90
71173;DHT22;58875;51.996;4.504;2024-02-26T03:02:14;6.99;76.05
71173;DHT22;58875;51.996;4.504;2024-02-26T03:04:40;6.97;76.03
71173;DHT22;58875;51.996;4.504;2024-02-26T03:07:06;6.99;76.08
71173;DHT22;58875;51.996;4.504;2024-02-26T03:09:31;7.00;75.97
71173;DHT22;58875;51.996;4.504;2024-02-26T03:11:57;7.01;75.84
71173;DHT22;58875;51.996;4.504;2024-02-26T03:14:23;7.03;75.73
71173;DHT22;58875;51.996;4.504;2024-02-26T03:16:48;6.99;75.90
71173;DHT22;58875;51.996;4.504;2024-02-26T03:19:15;6.87;76.05
71173;DHT22;58875;51.996;4.504;2024-02-26T03:21:41;6.84;76.19
71173;DHT22;58875;51.996;4.504;2024-02-26T03:24:07;6.91;76.33
71173;DHT22;58875;51.996;4.504;2024-02-26T03:26:36;6.86;76.18
71173;DHT22;58875;51.996;4.504;2024-02-26T03:29:02;6.83;76.28
71173;DHT22;58875;51.996;4.504;2024-02-26T03:31:28;6.90;76.14
71173;DHT22;58875;51.996;4.504;2024-02-26T03:33:54;6.86;76.12
71173;DHT22;58875;51.996;4.504;2024-02-26T03:36:20;6.83;76.45
71173;DHT22;58875;51.996;4.504;2024-02-26T03:38:47;6.79;76.48
71173;DHT22;58875;51.996;4.504;2024-02-26T03:41:13;6.80;76.51
71173;DHT22;58875;51.996;4.504;2024-02-26T03:43:38;6.77;76.45
71173;DHT22;58875;51.996;4.504;2024-02-26T03:46:07;6.79;76.58
71173;DHT22;58875;51.996;4.504;2024-02-26T03:48:33;6.76;76.33
71173;DHT22;58875;51.996;4.504;2024-02-26T03:50:59;6.76;76.70
71173;DHT22;58875;51.996;4.504;2024-02-26T03:53:25;6.83;76.33
71173;DHT22;58875;51.996;4.504;2024-02-26T03:55:51;6.79;76.02
71173;DHT22;58875;51.996;4.504;2024-02-26T03:58:18;6.77;76.38
71173;DHT22;58875;51.996;4.504;2024-02-26T04:00:43;6.70;76.39
71173;DHT22;58875;51.996;4.504;2024-02-26T04:03:09;6.75;76.33
71173;DHT22;58875;51.996;4.504;2024-02-26T04:05:35;6.72;76.50
71173;DHT22;58875;51.996;4.504;2024-02-26T04:08:01;6.75;76.73
71173;DHT22;58875;51.996;4.504;2024-02-26T04:10:26;6.77;76.57
71173;DHT22;58875;51.996;4.504;2024-02-26T04:12:52;6.77;76.92
71173;DHT22;58875;51.996;4.504;2024-02-26T04:15:18;6.76;76.82
71173;DHT22;58875;51.996;4.504;2024-02-26T04:17:43;6.73;76.77
71173;DHT22;58875;51.996;4.504;2024-02-26T04:20:14;6.75;76.78
71173;DHT22;58875;51.996;4.504;2024-02-26T04:22:41;6.75;76.94
71173;DHT22;58875;51.996;4.504;2024-02-26T04:25:07;6.72;77.06
71173;DHT22;58875;51.996;4.504;2024-02-26T04:27:32;6.70;76.97
71173;DHT22;58875;51.996;4.504;2024-02-26T04:29:58;6.66;77.00
71173;DHT22;58875;51.996;4.504;2024-02-26T04:32:23;6.69;77.24
71173;DHT22;58875;51.996;4.504;2024-02-26T04:34:49;6.69;77.20
71173;DHT22;58875;51.996;4.504;2024-02-26T04:37:15;6.66;77.44
71173;DHT22;58875;51.996;4.504;2024-02-26T04:39:40;6.69;77.50
71173;DHT22;58875;51.996;4.504;2024-02-26T04:42:06;6.72;77.55
71173;DHT22;58875;51.996;4.504;2024-02-26T04:44:31;6.69;77.63
71173;DHT22;58875;51.996;4.504;2024-02-26T04:46:57;6.68;77.85
71173;DHT22;58875;51.996;4.504;2024-02-26T04:49:22;6.66;77.94
71173;DHT22;58875;51.996;4.504;2024-02-26T04:51:48;6.62;77.92
71173;DHT22;58875;51.996;4.504;2024-02-26T04:54:13;6.65;77.90
71173;DHT22;58875;51.996;4.504;2024-02-26T04:56:39;6.60;77.76
71173;DHT22;58875;51.996;4.504;2024-02-26T04:59:04;6.62;77.93
71173;DHT22;58875;51.996;4.504;2024-02-26T05:01:30;6.62;77.77
71173;DHT22;58875;51.996;4.504;2024-02-26T05:03:55;6.63;77.91
71173;DHT22;58875;51.996;4.504;2024-02-26T05:06:21;6.65;77.70
71173;DHT22;58875;51.996;4.504;2024-02-26T05:08:46;6.63;77.61
71173;DHT22;58875;51.996;4.504;2024-02-26T05:11:12;6.60;77.78
71173;DHT22;58875;51.996;4.504;2024-02-26T05:13:37;6.60;77.99
71173;DHT22;58875;51.996;4.504;2024-02-26T05:16:03;6.62;78.08
71173;DHT22;58875;51.996;4.504;2024-02-26T05:18:29;6.68;78.12
71173;DHT22;58875;51.996;4.504;2024-02-26T05:20:54;6.66;78.34
71173;DHT22;58875;51.996;4.504;2024-02-26T05:23:20;6.66;78.57
71173;DHT22;58875;51.996;4.504;2024-02-26T05:25:45;6.73;78.38
71173;DHT22;58875;51.996;4.504;2024-02-26T05:28:13;6.66;78.45
71173;DHT22;58875;51.996;4.504;2024-02-26T05:30:41;6.56;78.43
71173;DHT22;58875;51.996;4.504;2024-02-26T05:33:07;6.57;78.73
71173;DHT22;58875;51.996;4.504;2024-02-26T05:35:33;6.60;78.72
71173;DHT22;58875;51.996;4.504;2024-02-26T05:37:58;6.54;78.49
71173;DHT22;58875;51.996;4.504;2024-02-26T05:40:24;6.56;78.77
71173;DHT22;58875;51.996;4.504;2024-02-26T05:42:49;6.52;78.59
71173;DHT22;58875;51.996;4.504;2024-02-26T05:45:15;6.45;78.63
71173;DHT22;58875;51.996;4.504;2024-02-26T05:47:40;6.45;78.86
71173;DHT22;58875;51.996;4.504;2024-02-26T05:50:11;6.48;78.78
71173;DHT22;58875;51.996;4.504;2024-02-26T05:52:37;6.50;78.63
71173;DHT22;58875;51.996;4.504;2024-02-26T05:55:06;6.41;78.62
71173;DHT22;58875;51.996;4.504;2024-02-26T05:57:34;6.45;78.84
71173;DHT22;58875;51.996;4.504;2024-02-26T06:00:00;6.41;78.82
71173;DHT22;58875;51.996;4.504;2024-02-26T06:02:32;6.32;79.04
71173;DHT22;58875;51.996;4.504;2024-02-26T06:04:58;6.36;79.03
71173;DHT22;58875;51.996;4.504;2024-02-26T06:07:24;6.46;78.82
71173;DHT22;58875;51.996;4.504;2024-02-26T06:09:50;6.43;78.75
71173;DHT22;58875;51.996;4.504;2024-02-26T06:12:15;6.39;78.91
71173;DHT22;58875;51.996;4.504;2024-02-26T06:14:44;6.41;78.90
71173;DHT22;58875;51.996;4.504;2024-02-26T06:17:10;6.32;78.78
71173;DHT22;58875;51.996;4.504;2024-02-26T06:19:35;6.38;79.07
71173;DHT22;58875;51.996;4.504;2024-02-26T06:22:01;6.32;78.99
71173;DHT22;58875;51.996;4.504;2024-02-26T06:24:26;6.32;79.02
71173;DHT22;58875;51.996;4.504;2024-02-26T06:26:51;6.32;79.16
71173;DHT22;58875;51.996;4.504;2024-02-26T06:29:17;6.29;79.18
71173;DHT22;58875;51.996;4.504;2024-02-26T06:31:43;6.29;79.27
71173;DHT22;58875;51.996;4.504;2024-02-26T06:34:08;6.32;79.33
71173;DHT22;58875;51.996;4.504;2024-02-26T06:36:34;6.31;79.46
71173;DHT22;58875;51.996;4.504;2024-02-26T06:39:00;6.28;79.64
71173;DHT22;58875;51.996;4.504;2024-02-26T06:41:26;6.32;79.67
71173;DHT22;58875;51.996;4.504;2024-02-26T06:43:56;6.32;79.66
71173;DHT22;58875;51.996;4.504;2024-02-26T06:46:22;6.41;79.55
71173;DHT22;58875;51.996;4.504;2024-02-26T06:48:48;6.39;79.45
71173;DHT22;58875;51.996;4.504;2024-02-26T06:51:14;6.41;79.45
71173;DHT22;58875;51.996;4.504;2024-02-26T06:53:40;6.35;79.49
71173;DHT22;58875;51.996;4.504;2024-02-26T06:56:05;6.28;79.85
71173;DHT22;58875;51.996;4.504;2024-02-26T06:58:31;6.32;79.81
71173;DHT22;58875;51.996;4.504;2024-02-26T07:00:57;6.36;79.84
71173;DHT22;58875;51.996;4.504;2024-02-26T07:03:22;6.35;79.88
71173;DHT22;58875;51.996;4.504;2024-02-26T07:05:49;6.39;79.71
71173;DHT22;58875;51.996;4.504;2024-02-26T07:08:15;6.41;79.61
71173;DHT22;58875;51.996;4.504;2024-02-26T07:10:41;6.38;79.78
71173;DHT22;58875;51.996;4.504;2024-02-26T07:13:07;6.45;79.78
71173;DHT22;58875;51.996;4.504;2024-02-26T07:15:32;6.39;79.87
71173;DHT22;58875;51.996;4.504;2024-02-26T07:17:58;6.43;80.08
71173;DHT22;58875;51.996;4.504;2024-02-26T07:20:31;6.39;79.98
71173;DHT22;58875;51.996;4.504;2024-02-26T07:22:57;6.41;80.05
71173;DHT22;58875;51.996;4.504;2024-02-26T07:25:23;6.38;80.24
71173;DHT22;58875;51.996;4.504;2024-02-26T07:27:52;6.36;80.32
71173;DHT22;58875;51.996;4.504;2024-02-26T07:30:18;6.33;80.29
71173;DHT22;58875;51.996;4.504;2024-02-26T07:32:43;6.39;80.32
71173;DHT22;58875;51.996;4.504;2024-02-26T07:35:10;6.35;80.27
71173;DHT22;58875;51.996;4.504;2024-02-26T07:37:35;6.36;80.52
71173;DHT22;58875;51.996;4.504;2024-02-26T07:40:01;6.41;80.19
71173;DHT22;58875;51.996;4.504;2024-02-26T07:42:27;6.39;80.36
71173;DHT22;58875;51.996;4.504;2024-02-26T07:44:52;6.36;80.25
71173;DHT22;58875;51.996;4.504;2024-02-26T07:47:19;6.32;80.13
71173;DHT22;58875;51.996;4.504;2024-02-26T07:49:44;6.29;80.32
71173;DHT22;58875;51.996;4.504;2024-02-26T07:52:10;6.28;80.33
71173;DHT22;58875;51.996;4.504;2024-02-26T07:54:36;6.25;80.46
71173;DHT22;58875;51.996;4.504;2024-02-26T07:57:01;6.24;80.36
71173;DHT22;58875;51.996;4.504;2024-02-26T07:59:31;6.28;80.22
71173;DHT22;58875;51.996;4.504;2024-02-26T08:01:57;6.31;80.19
71173;DHT22;58875;51.996;4.504;2024-02-26T08:04:22;6.29;80.13
71173;DHT22;58875;51.996;4.504;2024-02-26T08:06:48;6.22;80.05
71173;DHT22;58875;51.996;4.504;2024-02-26T08:09:13;6.24;80.12
71173;DHT22;58875;51.996;4.504;2024-02-26T08:11:39;6.29;79.89
71173;DHT22;58875;51.996;4.504;2024-02-26T08:14:05;6.32;79.67
71173;DHT22;58875;51.996;4.504;2024-02-26T08:16:31;6.33;79.79
71173;DHT22;58875;51.996;4.504;2024-02-26T08:18:56;6.39;79.83
71173;DHT22;58875;51.996;4.504;2024-02-26T08:21:22;6.46;79.58
71173;DHT22;58875;51.996;4.504;2024-02-26T08:23:47;6.42;79.58
71173;DHT22;58875;51.996;4.504;2024-02-26T08:26:13;6.49;79.25
71173;DHT22;58875;51.996;4.504;2024-02-26T08:28:38;6.39;79.42
71173;DHT22;58875;51.996;4.504;2024-02-26T08:31:04;6.50;79.58
71173;DHT22;58875;51.996;4.504;2024-02-26T08:33:30;6.52;79.42
71173;DHT22;58875;51.996;4.504;2024-02-26T08:35:56;6.53;79.35
71173;DHT22;58875;51.996;4.504;2024-02-26T08:38:22;6.52;79.43
71173;DHT22;58875;51.996;4.504;2024-02-26T08:40:48;6.48;79.79
71173;DHT22;58875;51.996;4.504;2024-02-26T08:43:14;6.49;79.69
71173;DHT22;58875;51.996;4.504;2024-02-26T08:45:40;6.59;79.75
71173;DHT22;58875;51.996;4.504;2024-02-26T08:48:06;6.59;79.50
71173;DHT22;58875;51.996;4.504;2024-02-26T08:50:32;6.50;79.55
71173;DHT22;58875;51.996;4.504;2024-02-26T08:52:58;6.59;79.70
71173;DHT22;58875;51.996;4.504;2024-02-26T08:55:26;6.59;79.73
71173;DHT22;58875;51.996;4.504;2024-02-26T08:57:51;6.56;79.75
71173;DHT22;58875;51.996;4.504;2024-02-26T09:00:17;6.62;79.28
71173;DHT22;58875;51.996;4.504;2024-02-26T09:02:46;6.59;79.54
71173;DHT22;58875;51.996;4.504;2024-02-26T09:05:12;6.62;79.31
71173;DHT22;58875;51.996;4.504;2024-02-26T09:07:37;6.65;79.55
71173;DHT22;58875;51.996;4.504;2024-02-26T09:10:04;6.66;79.40
71173;DHT22;58875;51.996;4.504;2024-02-26T09:12:30;6.69;79.03
71173;DHT22;58875;51.996;4.504;2024-02-26T09:14:55;6.73;79.20
71173;DHT22;58875;51.996;4.504;2024-02-26T09:17:23;6.83;79.14
71173;DHT22;58875;51.996;4.504;2024-02-26T09:19:48;6.87;78.74
71173;DHT22;58875;51.996;4.504;2024-02-26T09:22:14;6.83;78.68
71173;DHT22;58875;51.996;4.504;2024-02-26T09:24:39;6.94;78.73
71173;DHT22;58875;51.996;4.504;2024-02-26T09:27:05;6.87;78.47
71173;DHT22;58875;51.996;4.504;2024-02-26T09:29:30;6.83;78.69
71173;DHT22;58875;51.996;4.504;2024-02-26T09:31:56;6.79;78.59
71173;DHT22;58875;51.996;4.504;2024-02-26T09:34:22;6.70;78.73
71173;DHT22;58875;51.996;4.504;2024-02-26T09:36:47;6.69;78.81
71173;DHT22;58875;51.996;4.504;2024-02-26T09:39:12;6.79;79.29
71173;DHT22;58875;51.996;4.504;2024-02-26T09:41:40;6.93;79.18
71173;DHT22;58875;51.996;4.504;2024-02-26T09:44:05;7.03;79.27
71173;DHT22;58875;51.996;4.504;2024-02-26T09:46:31;6.94;78.93
71173;DHT22;58875;51.996;4.504;2024-02-26T09:48:58;6.90;79.06
71173;DHT22;58875;51.996;4.504;2024-02-26T09:51:24;6.86;79.19
71173;DHT22;58875;51.996;4.504;2024-02-26T09:53:54;6.86;79.74
71173;DHT22;58875;51.996;4.504;2024-02-26T09:56:21;6.87;80.17
71173;DHT22;58875;51.996;4.504;2024-02-26T09:58:47;6.91;80.16
71173;DHT22;58875;51.996;4.504;2024-02-26T10:01:20;6.90;80.24
71173;DHT22;58875;51.996;4.504;2024-02-26T10:03:53;6.93;80.28
71173;DHT22;58875;51.996;4.504;2024-02-26T10:06:20;6.91;80.38
71173;DHT22;58875;51.996;4.504;2024-02-26T10:08:47;6.86;80.50
71173;DHT22;58875;51.996;4.504;2024-02-26T10:11:13;6.77;80.53
71173;DHT22;58875;51.996;4.504;2024-02-26T10:13:40;6.84;80.94
71173;DHT22;58875;51.996;4.504;2024-02-26T10:16:07;6.94;81.14
71173;DHT22;58875;51.996;4.504;2024-02-26T10:18:46;7.00;80.90
71173;DHT22;58875;51.996;4.504;2024-02-26T10:21:12;6.99;81.05
71173;DHT22;58875;51.996;4.504;2024-02-26T10:23:39;6.99;81.14
71173;DHT22;58875;51.996;4.504;2024-02-26T10:26:04;6.94;80.96
71173;DHT22;58875;51.996;4.504;2024-02-26T10:28:33;7.03;81.34
71173;DHT22;58875;51.996;4.504;2024-02-26T10:30:58;7.03;81.10
71173;DHT22;58875;51.996;4.504;2024-02-26T10:33:24;6.97;80.75
71173;DHT22;58875;51.996;4.504;2024-02-26T10:35:50;6.94;81.29
71173;DHT22;58875;51.996;4.504;2024-02-26T10:38:16;6.87;81.25
71173;DHT22;58875;51.996;4.504;2024-02-26T10:40:45;6.91;81.36
71173;DHT22;58875;51.996;4.504;2024-02-26T10:43:11;6.91;81.68
71173;DHT22;58875;51.996;4.504;2024-02-26T10:45:38;6.94;81.64
71173;DHT22;58875;51.996;4.504;2024-02-26T10:48:10;6.89;81.76
71173;DHT22;58875;51.996;4.504;2024-02-26T10:50:36;6.79;81.81
71173;DHT22;58875;51.996;4.504;2024-02-26T10:53:07;6.83;82.18
71173;DHT22;58875;51.996;4.504;2024-02-26T10:55:38;6.80;82.40
71173;DHT22;58875;51.996;4.504;2024-02-26T10:58:07;6.86;82.18
71173;DHT22;58875;51.996;4.504;2024-02-26T11:00:36;6.83;82.28
71173;DHT22;58875;51.996;4.504;2024-02-26T11:03:04;6.86;82.48
71173;DHT22;58875;51.996;4.504;2024-02-26T11:05:33;6.87;82.15
71173;DHT22;58875;51.996;4.504;2024-02-26T11:08:00;6.91;82.18
71173;DHT22;58875;51.996;4.504;2024-02-26T11:10:29;6.99;81.96
71173;DHT22;58875;51.996;4.504;2024-02-26T11:12:59;6.99;82.13
71173;DHT22;58875;51.996;4.504;2024-02-26T11:15:28;6.97;81.88
71173;DHT22;58875;51.996;4.504;2024-02-26T11:17:56;6.97;81.99
71173;DHT22;58875;51.996;4.504;2024-02-26T11:20:23;7.03;81.76
71173;DHT22;58875;51.996;4.504;2024-02-26T11:22:49;6.99;82.25
71173;DHT22;58875;51.996;4.504;2024-02-26T11:25:15;7.00;82.30
71173;DHT22;58875;51.996;4.504;2024-02-26T11:27:52;6.93;82.13
71173;DHT22;58875;51.996;4.504;2024-02-26T11:30:20;6.86;82.37
71173;DHT22;58875;51.996;4.504;2024-02-26T11:32:47;6.87;82.41
71173;DHT22;58875;51.996;4.504;2024-02-26T11:35:14;6.84;82.34
71173;DHT22;58875;51.996;4.504;2024-02-26T11:37:51;6.87;82.88
71173;DHT22;58875;51.996;4.504;2024-02-26T11:40:18;6.96;83.01
71173;DHT22;58875;51.996;4.504;2024-02-26T11:42:44;6.94;81.99
71173;DHT22;58875;51.996;4.504;2024-02-26T11:48:25;6.91;82.38
71173;DHT22;58875;51.996;4.504;2024-02-26T11:50:55;6.91;82.59
71173;DHT22;58875;51.996;4.504;2024-02-26T11:56:30;7.00;82.13
71173;DHT22;58875;51.996;4.504;2024-02-26T11:59:01;7.01;82.29
71173;DHT22;58875;51.996;4.504;2024-02-26T12:04:02;7.01;82.06
71173;DHT22;58875;51.996;4.504;2024-02-26T12:06:29;7.00;82.17
71173;DHT22;58875;51.996;4.504;2024-02-26T12:08:56;6.99;82.07
71173;DHT22;58875;51.996;4.504;2024-02-26T12:11:21;7.03;81.70
71173;DHT22;58875;51.996;4.504;2024-02-26T12:13:47;7.00;81.87
71173;DHT22;58875;51.996;4.504;2024-02-26T12:16:35;6.99;81.23
71173;DHT22;58875;51.996;4.504;2024-02-26T12:19:05;7.00;81.75
71173;DHT22;58875;51.996;4.504;2024-02-26T12:21:33;7.03;81.17
71173;DHT22;58875;51.996;4.504;2024-02-26T12:24:11;7.07;81.64
71173;DHT22;58875;51.996;4.504;2024-02-26T12:26:38;7.10;81.19
71173;DHT22;58875;51.996;4.504;2024-02-26T12:29:03;7.04;80.88
71173;DHT22;58875;51.996;4.504;2024-02-26T12:31:30;7.04;80.60
71173;DHT22;58875;51.996;4.504;2024-02-26T12:33:56;7.17;81.18
71173;DHT22;58875;51.996;4.504;2024-02-26T12:36:22;7.18;81.10
71173;DHT22;58875;51.996;4.504;2024-02-26T12:38:51;7.28;81.56
71173;DHT22;58875;51.996;4.504;2024-02-26T12:41:17;7.25;80.61
71173;DHT22;58875;51.996;4.504;2024-02-26T12:43:42;7.11;80.59
71173;DHT22;58875;51.996;4.504;2024-02-26T12:46:08;7.15;80.71
71173;DHT22;58875;51.996;4.504;2024-02-26T12:48:34;7.11;81.02
71173;DHT22;58875;51.996;4.504;2024-02-26T12:50:59;7.24;81.22
71173;DHT22;58875;51.996;4.504;2024-02-26T12:53:26;7.32;80.86
71173;DHT22;58875;51.996;4.504;2024-02-26T12:55:54;7.34;80.50
71173;DHT22;58875;51.996;4.504;2024-02-26T12:58:21;7.40;80.01
71173;DHT22;58875;51.996;4.504;2024-02-26T13:00:54;7.34;79.11
71173;DHT22;58875;51.996;4.504;2024-02-26T13:03:22;7.45;79.21
71173;DHT22;58875;51.996;4.504;2024-02-26T13:05:48;7.58;78.99
71173;DHT22;58875;51.996;4.504;2024-02-26T13:08:18;7.55;78.93
71173;DHT22;58875;51.996;4.504;2024-02-26T13:10:46;7.63;78.59
71173;DHT22;58875;51.996;4.504;2024-02-26T13:13:15;7.66;77.87
71173;DHT22;58875;51.996;4.504;2024-02-26T13:15:43;7.81;78.17
71173;DHT22;58875;51.996;4.504;2024-02-26T13:18:14;7.79;78.02
71173;DHT22;58875;51.996;4.504;2024-02-26T13:20:42;7.66;76.89
71173;DHT22;58875;51.996;4.504;2024-02-26T13:23:11;7.65;77.01
71173;DHT22;58875;51.996;4.504;2024-02-26T13:25:38;7.76;77.14
71173;DHT22;58875;51.996;4.504;2024-02-26T13:28:08;7.76;77.00
71173;DHT22;58875;51.996;4.504;2024-02-26T13:30:35;7.71;76.53
71173;DHT22;58875;51.996;4.504;2024-02-26T13:33:11;7.73;76.24
71173;DHT22;58875;51.996;4.504;2024-02-26T13:35:38;7.83;76.49
71173;DHT22;58875;51.996;4.504;2024-02-26T13:38:05;7.82;76.09
71173;DHT22;58875;51.996;4.504;2024-02-26T13:40:32;7.72;75.97
71173;DHT22;58875;51.996;4.504;2024-02-26T13:42:57;7.76;76.22
71173;DHT22;58875;51.996;4.504;2024-02-26T13:45:26;7.78;75.84
71173;DHT22;58875;51.996;4.504;2024-02-26T13:47:51;7.82;76.13
71173;DHT22;58875;51.996;4.504;2024-02-26T13:50:19;7.92;75.81
71173;DHT22;58875;51.996;4.504;2024-02-26T13:52:48;7.97;75.70
71173;DHT22;58875;51.996;4.504;2024-02-26T13:55:18;7.93;75.40
71173;DHT22;58875;51.996;4.504;2024-02-26T13:57:45;8.00;75.17
71173;DHT22;58875;51.996;4.504;2024-02-26T14:00:12;8.07;75.15
71173;DHT22;58875;51.996;4.504;2024-02-26T14:02:37;8.10;74.57
71173;DHT22;58875;51.996;4.504;2024-02-26T14:05:03;8.10;74.49
71173;DHT22;58875;51.996;4.504;2024-02-26T14:07:30;8.13;73.90
71173;DHT22;58875;51.996;4.504;2024-02-26T14:09:58;8.09;74.48
71173;DHT22;58875;51.996;4.504;2024-02-26T14:12:24;8.16;74.63
71173;DHT22;58875;51.996;4.504;2024-02-26T14:14:49;8.12;74.28
71173;DHT22;58875;51.996;4.504;2024-02-26T14:17:15;8.24;74.55
71173;DHT22;58875;51.996;4.504;2024-02-26T14:19:41;8.34;74.34
71173;DHT22;58875;51.996;4.504;2024-02-26T14:22:13;8.29;73.87
71173;DHT22;58875;51.996;4.504;2024-02-26T14:24:38;8.23;73.81
71173;DHT22;58875;51.996;4.504;2024-02-26T14:27:06;8.26;74.38
71173;DHT22;58875;51.996;4.504;2024-02-26T14:29:33;8.23;74.27
71173;DHT22;58875;51.996;4.504;2024-02-26T14:31:58;8.30;74.02
71173;DHT22;58875;51.996;4.504;2024-02-26T14:34:24;8.44;74.67
71173;DHT22;58875;51.996;4.504;2024-02-26T14:36:49;8.53;73.88
71173;DHT22;58875;51.996;4.504;2024-02-26T14:39:15;8.58;73.05
71173;DHT22;58875;51.996;4.504;2024-02-26T14:41:40;8.43;73.04
71173;DHT22;58875;51.996;4.504;2024-02-26T14:44:06;8.30;73.74
71173;DHT22;58875;51.996;4.504;2024-02-26T14:46:31;8.33;73.52
71173;DHT22;58875;51.996;4.504;2024-02-26T14:48:57;8.23;73.51
71173;DHT22;58875;51.996;4.504;2024-02-26T14:51:23;8.26;73.97
71173;DHT22;58875;51.996;4.504;2024-02-26T14:53:49;8.27;73.62
71173;DHT22;58875;51.996;4.504;2024-02-26T14:56:14;8.30;73.67
71173;DHT22;58875;51.996;4.504;2024-02-26T14:58:40;8.29;73.52
71173;DHT22;58875;51.996;4.504;2024-02-26T15:01:05;8.26;73.17
71173;DHT22;58875;51.996;4.504;2024-02-26T15:03:32;8.22;73.06
71173;DHT22;58875;51.996;4.504;2024-02-26T15:05:58;8.24;73.24
71173;DHT22;58875;51.996;4.504;2024-02-26T15:08:23;8.24;73.07
71173;DHT22;58875;51.996;4.504;2024-02-26T15:10:49;8.30;73.07
71173;DHT22;58875;51.996;4.504;2024-02-26T15:13:15;8.32;72.32
71173;DHT22;58875;51.996;4.504;2024-02-26T15:15:42;8.33;72.57
71173;DHT22;58875;51.996;4.504;2024-02-26T15:18:08;8.37;72.48
71173;DHT22;58875;51.996;4.504;2024-02-26T15:20:37;8.32;72.70
71173;DHT22;58875;51.996;4.504;2024-02-26T15:23:05;8.37;72.73
71173;DHT22;58875;51.996;4.504;2024-02-26T15:25:31;8.36;72.63
71173;DHT22;58875;51.996;4.504;2024-02-26T15:27:57;8.38;72.39
71173;DHT22;58875;51.996;4.504;2024-02-26T15:30:24;8.34;72.27
71173;DHT22;58875;51.996;4.504;2024-02-26T15:32:49;8.23;71.77
71173;DHT22;58875;51.996;4.504;2024-02-26T15:35:15;8.16;71.88
71173;DHT22;58875;51.996;4.504;2024-02-26T15:37:40;8.14;72.26
71173;DHT22;58875;51.996;4.504;2024-02-26T15:40:06;8.07;72.36
71173;DHT22;58875;51.996;4.504;2024-02-26T15:42:33;8.09;72.38
71173;DHT22;58875;51.996;4.504;2024-02-26T15:44:58;8.10;72.78
71173;DHT22;58875;51.996;4.504;2024-02-26T15:47:24;8.06;72.33
71173;DHT22;58875;51.996;4.504;2024-02-26T15:49:51;8.06;72.36